Time;durP1;ratioP1;P1;durP2;ratioP2;P2;SDS_P1;SDS_P2;PMS_P1;PMS_P2;Temp;Humidity;BMP_temperature;BMP_pressure;BME280_temperature;BME280_humidity;BME280_pressure;Samples;Min_cycle;Max_cycle;Signal;HPM_P1;HPM_P2
2022/11/03 00:03:09;;;;;;;5.45;0.85;;;11.00;99.90;;;;;;5052807;28;20387;-88
2022/11/03 00:06:20;;;;;;;;;;;;;;;;;;;;;
2022/11/03 00:09:49;;;;;;;;;;;;;;;;;;;;;
2022/11/03 00:12:32;;;;;;;5.70;0.68;;;10.50;99.90;;;;;;5055247;28;20472;-88
2022/11/03 00:15:40;;;;;;;6.70;1.02;;;10.50;99.90;;;;;;5053965;28;20049;-87
2022/11/03 00:19:13;;;;;;;6.80;0.65;;;10.70;99.90;;;;;;5048803;28;20514;-92
2022/11/03 00:22:23;;;;;;;6.00;0.85;;;10.50;99.90;;;;;;5055406;28;20165;-91
2022/11/03 00:25:01;;;;;;;8.57;0.98;;;10.60;99.90;;;;;;5035221;28;20041;-87
2022/11/03 00:27:27;;;;;;;2.75;0.60;;;10.50;99.90;;;;;;5037577;28;20360;-87
2022/11/03 00:29:54;;;;;;;4.38;0.90;;;10.60;99.90;;;;;;5055743;28;20041;-87
2022/11/03 00:32:20;;;;;;;4.03;0.60;;;10.50;99.90;;;;;;5058569;28;20500;-87
2022/11/03 00:34:48;;;;;;;3.88;0.77;;;11.10;99.90;;;;;;5015320;28;20037;-88
2022/11/03 00:37:14;;;;;;;2.65;0.63;;;10.50;99.90;;;;;;5038405;28;20045;-89
2022/11/03 00:39:40;;;;;;;6.25;0.75;;;11.20;99.90;;;;;;5040726;28;20041;-89
2022/11/03 00:42:16;;;;;;;6.93;1.23;;;10.60;99.90;;;;;;5041478;28;20053;-86
2022/11/03 00:44:48;;;;;;;5.10;0.70;;;10.60;99.90;;;;;;5066258;28;20036;-88
2022/11/03 00:47:16;;;;;;;6.45;0.82;;;10.50;99.90;;;;;;5042770;28;20056;-88
2022/11/03 00:49:46;;;;;;;5.70;1.00;;;10.50;99.90;;;;;;5029155;28;20052;-87
2022/11/03 00:52:12;;;;;;;7.32;0.77;;;10.50;99.90;;;;;;5038592;28;20127;-87
2022/11/03 00:54:43;;;;;;;4.03;0.70;;;10.50;99.90;;;;;;5037184;28;20124;-88
2022/11/03 00:57:15;;;;;;;5.57;1.10;;;10.50;99.90;;;;;;5055388;28;20520;-88
2022/11/03 00:59:42;;;;;;;3.97;0.60;;;10.40;99.90;;;;;;5037575;28;20049;-88
2022/11/03 01:02:08;;;;;;;2.22;0.55;;;10.40;99.90;;;;;;5036606;28;20478;-87
2022/11/03 01:07:39;;;;;;;3.15;0.60;;;10.40;99.90;;;;;;5059247;28;20053;-88
2022/11/03 01:14:37;;;;;;;;;;;;;;;;;;;;;
2022/11/03 01:18:14;;;;;;;5.32;1.13;;;10.40;99.90;;;;;;5016752;28;20041;-88
2022/11/03 01:21:50;;;;;;;4.13;0.50;;;10.30;99.90;;;;;;4967119;28;20474;-88
2022/11/03 01:25:24;;;;;;;6.20;1.00;;;10.20;99.90;;;;;;5027519;28;20045;-89
2022/11/03 01:29:09;;;;;;;;;;;;;;;;;;;;;
2022/11/03 01:31:59;;;;;;;4.07;0.82;;;10.20;99.90;;;;;;4898245;29;20051;-88
2022/11/03 01:35:39;;;;;;;7.18;0.73;;;10.10;99.90;;;;;;4935830;29;20044;-89
2022/11/03 01:39:23;;;;;;;6.93;0.70;;;10.20;99.90;;;;;;4928813;29;20119;-89
2022/11/03 01:46:37;;;;;;;6.05;0.95;;;10.10;99.90;;;;;;4938932;29;20479;-89
2022/11/03 01:50:12;;;;;;;;;;;;;;;;;;;;;
2022/11/03 01:53:57;;;;;;;4.57;0.70;;;10.10;99.90;;;;;;4958445;29;20066;-88
2022/11/03 01:56:46;;;;;;;5.38;0.93;;;10.10;99.90;;;;;;4947858;29;20061;-88
2022/11/03 02:00:06;;;;;;;;;;;;;;;;;;;;;
2022/11/03 02:03:42;;;;;;;3.67;0.63;;;10.10;99.90;;;;;;4935999;29;20055;-91
2022/11/03 02:07:15;;;;;;;;;;;;;;;;;;;;;
2022/11/03 02:10:10;;;;;;;6.65;1.23;;;10.00;99.90;;;;;;4989400;28;20053;-89
2022/11/03 02:13:31;;;;;;;6.65;0.98;;;10.00;99.90;;;;;;5001157;28;20541;-88
2022/11/03 02:16:49;;;;;;;4.57;0.55;;;10.20;99.90;;;;;;5012188;28;20059;-89
2022/11/03 02:20:24;;;;;;;;;;;;;;;;;;;;;
2022/11/03 02:23:42;;;;;;;2.38;0.63;;;10.00;99.90;;;;;;5036734;28;20057;-89
2022/11/03 02:27:19;;;;;;;;;;;;;;;;;;;;;
2022/11/03 02:30:26;;;;;;;6.93;0.90;;;10.00;99.90;;;;;;5050742;28;20516;-88
2022/11/03 02:33:50;;;;;;;;;;;;;;;;;;;;;
2022/11/03 02:37:17;;;;;;;3.80;0.70;;;11.00;99.90;;;;;;5054723;28;20052;-89
2022/11/03 02:40:12;;;;;;;8.77;1.00;;;10.10;99.90;;;;;;4935094;28;20074;-89
2022/11/03 02:43:32;;;;;;;2.53;0.50;;;10.00;99.90;;;;;;4965847;28;20061;-88
2022/11/03 02:46:24;;;;;;;4.65;0.80;;;10.00;99.90;;;;;;4958531;28;20051;-89
2022/11/03 02:50:06;;;;;;;5.38;0.82;;;10.00;99.90;;;;;;4968608;28;20627;-88
2022/11/03 02:53:27;;;;;;;10.07;1.00;;;10.20;99.90;;;;;;4956101;28;20518;-88
2022/11/03 02:56:48;;;;;;;;;;;;;;;;;;;;;
2022/11/03 03:00:26;;;;;;;6.03;0.82;;;10.10;99.90;;;;;;4980109;28;20053;-88
2022/11/03 03:03:30;;;;;;;7.00;0.95;;;10.10;99.90;;;;;;4954457;28;20066;-89
2022/11/03 03:06:38;;;;;;;;;;;;;;;;;;;;;
2022/11/03 03:09:45;;;;;;;2.35;0.60;;;10.10;99.90;;;;;;4912701;29;20063;-89
2022/11/03 03:13:08;;;;;;;4.65;1.02;;;10.20;99.90;;;;;;4914274;29;20413;-88
2022/11/03 03:17:00;;;;;;;;;;;;;;;;;;;;;
2022/11/03 03:20:27;;;;;;;6.22;0.85;;;10.20;99.90;;;;;;5015088;28;20121;-88
2022/11/03 03:23:43;;;;;;;;;;;;;;;;;;;;;
2022/11/03 03:27:04;;;;;;;4.70;1.20;;;10.30;99.90;;;;;;4988879;28;20170;-88
2022/11/03 03:41:36;;;;;;;;;;;;;;;;;;;;;
2022/11/03 03:44:58;;;;;;;5.25;0.60;;;10.30;99.90;;;;;;4960191;29;20057;-89
2022/11/03 03:48:08;;;;;;;8.20;0.93;;;10.30;99.90;;;;;;4955478;29;20058;-90
2022/11/03 03:51:41;;;;;;;5.97;0.80;;;10.70;99.90;;;;;;4956749;29;20595;-89
2022/11/03 03:55:06;;;;;;;7.18;1.27;;;10.40;99.90;;;;;;4928821;29;20050;-90
2022/11/03 03:58:44;;;;;;;6.82;1.00;;;10.40;99.90;;;;;;4977950;28;20049;-88
2022/11/03 04:02:24;;;;;;;5.43;0.80;;;10.50;99.90;;;;;;4942100;29;20436;-90
2022/11/03 04:05:51;;;;;;;7.80;0.63;;;11.70;99.90;;;;;;4954218;28;20058;-89
2022/11/03 04:09:09;;;;;;;5.63;0.90;;;10.60;99.90;;;;;;4919735;29;20059;-89
2022/11/03 04:23:43;;;;;;;5.93;1.25;;;10.60;99.90;;;;;;5002981;28;20038;-88
2022/11/03 04:27:26;;;;;;;;;;;;;;;;;;;;;
2022/11/03 04:30:55;;;;;;;;;;;;;;;;;;;;;
2022/11/03 04:34:14;;;;;;;2.15;0.70;;;10.50;99.90;;;;;;4989573;28;20519;-88
2022/11/03 04:37:37;;;;;;;6.97;1.30;;;10.50;99.90;;;;;;4970651;29;20105;-87
2022/11/03 04:41:12;;;;;;;4.80;0.68;;;10.40;99.90;;;;;;4979241;28;20102;-89
2022/11/03 04:44:54;;;;;;;6.00;0.60;;;10.40;99.90;;;;;;4977631;28;20042;-91
2022/11/03 04:48:15;;;;;;;;;;;;;;;;;;;;;
2022/11/03 04:51:40;;;;;;;;;;;;;;;;;;;;;
2022/11/03 04:54:56;;;;;;;6.97;0.88;;;10.30;99.90;;;;;;4978879;28;20054;-89
2022/11/03 04:58:20;;;;;;;2.40;0.70;;;10.40;99.90;;;;;;4992550;28;20560;-88
2022/11/03 05:01:44;;;;;;;6.40;0.82;;;10.30;99.90;;;;;;5020173;28;20052;-88
2022/11/03 05:05:04;;;;;;;3.10;0.60;;;11.40;99.90;;;;;;5058410;28;20516;-87
2022/11/03 05:08:05;;;;;;;4.05;1.10;;;10.30;99.90;;;;;;5054405;28;20045;-88
2022/11/03 05:11:26;;;;;;;;;;;;;;;;;;;;;
2022/11/03 05:15:00;;;;;;;5.57;0.60;;;11.10;99.90;;;;;;5044233;28;20509;-88
2022/11/03 05:18:41;;;;;;;3.88;0.50;;;10.20;99.90;;;;;;5048659;28;20040;-88
2022/11/03 05:22:07;;;;;;;3.35;0.55;;;10.20;99.90;;;;;;5057913;28;20508;-88
2022/11/03 05:25:20;;;;;;;5.75;0.60;;;10.20;99.90;;;;;;5038456;28;20529;-91
2022/11/03 05:28:58;;;;;;;;;;;;;;;;;;;;;
2022/11/03 05:39:46;;;;;;;;;;;;;;;;;;;;;
2022/11/03 05:50:46;;;;;;;;;;;;;;;;;;;;;
2022/11/03 05:54:26;;;;;;;1.88;0.60;;;10.10;99.90;;;;;;4886931;29;20570;-91
2022/11/03 05:57:20;;;;;;;3.53;0.70;;;10.10;99.90;;;;;;4871344;29;20136;-89
2022/11/03 06:01:04;;;;;;;;;;;;;;;;;;;;;
2022/11/03 06:04:29;;;;;;;;;;;;;;;;;;;;;
2022/11/03 06:07:55;;;;;;;2.58;1.08;;;10.00;99.90;;;;;;4900818;29;20056;-90
2022/11/03 06:14:42;;;;;;;;;;;;;;;;;;;;;
2022/11/03 06:17:55;;;;;;;;;;;;;;;;;;;;;
2022/11/03 06:21:25;;;;;;;4.68;1.00;;;10.00;99.90;;;;;;4829116;29;20065;-89
2022/11/03 06:24:36;;;;;;;4.10;0.65;;;10.00;99.90;;;;;;4822676;29;20114;-91
2022/11/03 06:27:57;;;;;;;2.63;0.65;;;10.00;99.90;;;;;;4842594;29;20094;-93
2022/11/03 06:31:25;;;;;;;4.70;0.70;;;10.90;99.90;;;;;;4835379;29;20124;-90
2022/11/03 06:39:28;;;;;;;1.63;0.60;;;9.90;99.90;;;;;;4762684;30;20066;-90
2022/11/03 06:42:41;;;;;;;1.27;0.40;;;10.70;99.90;;;;;;4868828;23;20051;-89
2022/11/03 06:46:04;;;;;;;3.28;0.70;;;9.90;99.90;;;;;;4984257;28;20099;-92
2022/11/03 06:49:40;;;;;;;6.53;1.08;;;10.00;99.90;;;;;;4893782;29;20063;-89
2022/11/03 06:52:45;;;;;;;6.32;1.35;;;10.00;99.90;;;;;;4922352;29;20109;-96
2022/11/03 06:55:50;;;;;;;3.20;0.88;;;10.00;99.90;;;;;;4906554;29;20068;-91
2022/11/03 06:59:16;;;;;;;3.75;1.35;;;9.70;99.90;;;;;;4900437;29;20048;-94
2022/11/03 07:02:47;;;;;;;5.75;0.85;;;10.10;99.90;;;;;;4885234;29;20056;-87
2022/11/03 07:06:30;;;;;;;;;;;;;;;;;;;;;
2022/11/03 07:09:19;;;;;;;3.85;1.00;;;10.10;99.90;;;;;;4886735;29;20525;-88
2022/11/03 07:12:20;;;;;;;8.50;1.00;;;10.20;99.90;;;;;;4877746;29;20140;-84
2022/11/03 07:15:41;;;;;;;3.10;0.85;;;10.20;99.90;;;;;;4887002;29;20052;-86
2022/11/03 07:18:46;;;;;;;6.47;1.13;;;10.20;99.90;;;;;;4875372;29;20067;-87
2022/11/03 07:22:06;;;;;;;4.25;0.90;;;10.20;99.90;;;;;;4895299;29;20048;-93
2022/11/03 07:25:41;;;;;;;1.70;0.60;;;10.30;99.90;;;;;;4902621;29;20529;-88
2022/11/03 07:28:47;;;;;;;4.72;0.98;;;10.30;99.90;;;;;;4893659;29;20461;-91
2022/11/03 07:31:35;;;;;;;8.75;0.82;;;10.30;99.90;;;;;;4913255;29;20056;-89
2022/11/03 07:34:32;;;;;;;6.78;0.90;;;10.20;99.90;;;;;;4920442;29;20055;-89
2022/11/03 07:37:48;;;;;;;2.13;0.82;;;10.40;99.90;;;;;;4907182;29;20048;-89
2022/11/03 07:40:43;;;;;;;3.23;0.70;;;10.40;99.90;;;;;;4911610;29;20050;-89
2022/11/03 07:43:59;;;;;;;;;;;;;;;;;;;;;
2022/11/03 07:47:14;;;;;;;1.77;0.70;;;10.80;99.90;;;;;;4921714;29;20504;-87
2022/11/03 07:50:17;;;;;;;2.40;0.60;;;10.60;99.90;;;;;;4902825;29;20115;-89
2022/11/03 07:53:43;;;;;;;;;;;;;;;;;;;;;
2022/11/03 07:56:50;;;;;;;3.40;0.80;;;10.70;99.90;;;;;;4941020;29;20043;-92
2022/11/03 08:00:22;;;;;;;;;;;;;;;;;;;;;
2022/11/03 08:03:47;;;;;;;7.95;1.00;;;10.80;99.90;;;;;;4938993;29;20079;-92
2022/11/03 08:06:47;;;;;;;3.38;0.65;;;10.90;99.90;;;;;;4934394;29;20542;-94
2022/11/03 08:09:46;;;;;;;4.03;0.88;;;11.00;99.90;;;;;;4895672;29;20048;-92
2022/11/03 08:12:51;;;;;;;4.10;0.90;;;11.10;99.90;;;;;;4939707;29;20079;-93
2022/11/03 08:19:29;;;;;;;5.78;0.80;;;11.20;99.90;;;;;;4942968;28;20596;-94
2022/11/03 08:22:30;;;;;;;;;;;;;;;;;;;;;
2022/11/03 08:25:31;;;;;;;4.97;0.70;;;11.30;99.90;;;;;;4904907;29;19923;-94
2022/11/03 08:28:39;;;;;;;;;;;;;;;;;;;;;
2022/11/03 08:31:41;;;;;;;;;;;;;;;;;;;;;
2022/11/03 08:34:38;;;;;;;2.70;0.65;;;11.50;99.90;;;;;;4977607;28;20050;-92
2022/11/03 08:38:04;;;;;;;;;;;;;;;;;;;;;
2022/11/03 08:41:04;;;;;;;;;;;;;;;;;;;;;
2022/11/03 08:44:14;;;;;;;6.57;1.25;;;11.80;99.90;;;;;;4977632;28;20113;-92
2022/11/03 08:47:24;;;;;;;6.40;1.10;;;11.90;99.90;;;;;;4959283;28;20057;-92
2022/11/03 08:50:30;;;;;;;7.90;1.13;;;12.10;99.90;;;;;;4971199;28;20130;-93
2022/11/03 08:53:54;;;;;;;;;;;;;;;;;;;;;
2022/11/03 08:56:55;;;;;;;;;;;;;;;;;;;;;
2022/11/03 08:59:59;;;;;;;4.88;0.88;;;13.00;99.90;;;;;;4976096;28;20055;-93
2022/11/03 09:02:59;;;;;;;3.47;0.90;;;12.90;99.90;;;;;;4977055;28;20126;-93
2022/11/03 09:05:50;;;;;;;5.63;1.05;;;12.60;99.90;;;;;;4975432;28;20503;-93
2022/11/03 09:08:54;;;;;;;3.47;0.63;;;12.70;99.90;;;;;;4976377;28;20071;-95
2022/11/03 09:11:58;;;;;;;5.13;0.88;;;12.70;99.90;;;;;;4959429;28;20427;-90
2022/11/03 09:14:59;;;;;;;4.82;1.00;;;12.80;99.90;;;;;;4975643;28;20491;-94
2022/11/03 09:17:49;;;;;;;4.22;1.15;;;12.80;99.90;;;;;;4942990;28;20389;-93
2022/11/03 09:20:48;;;;;;;6.88;0.80;;;12.80;99.90;;;;;;4976653;28;20492;-92
2022/11/03 09:23:59;;;;;;;4.05;0.80;;;12.80;99.90;;;;;;4954063;28;20094;-94
2022/11/03 09:27:19;;;;;;;9.55;0.80;;;12.80;99.90;;;;;;4976868;28;20106;-94
2022/11/03 09:30:46;;;;;;;6.18;0.85;;;12.80;99.90;;;;;;4976626;28;20042;-94
2022/11/03 09:34:01;;;;;;;3.13;0.80;;;12.90;99.90;;;;;;4959186;28;20050;-94
2022/11/03 09:36:52;;;;;;;4.07;1.05;;;13.10;99.90;;;;;;4972636;28;20436;-93
2022/11/03 09:39:55;;;;;;;3.30;1.00;;;13.00;99.90;;;;;;4917194;29;20071;-94
2022/11/03 09:43:06;;;;;;;3.38;0.88;;;13.10;99.90;;;;;;4908598;29;20055;-94
2022/11/03 09:46:22;;;;;;;5.55;0.90;;;13.10;99.90;;;;;;4955080;29;20055;-92
2022/11/03 09:49:34;;;;;;;4.10;0.77;;;13.10;99.90;;;;;;4939572;29;20083;-86
2022/11/03 09:53:02;;;;;;;7.55;1.30;;;13.20;99.90;;;;;;4956231;29;20083;-90
2022/11/03 09:56:08;;;;;;;8.10;0.85;;;13.30;99.90;;;;;;4970394;29;20047;-85
2022/11/03 09:59:23;;;;;;;5.05;1.00;;;13.30;99.90;;;;;;4973436;29;20579;-90
2022/11/03 10:02:39;;;;;;;4.00;0.88;;;13.40;99.90;;;;;;4953879;28;20600;-93
2022/11/03 10:06:01;;;;;;;;;;;;;;;;;;;;;
2022/11/03 10:09:10;;;;;;;11.52;1.50;;;13.60;99.90;;;;;;4954698;29;20043;-89
2022/11/03 10:12:22;;;;;;;2.90;0.60;;;13.70;99.90;;;;;;4938185;29;20055;-93
2022/11/03 10:15:51;;;;;;;6.75;1.05;;;13.80;99.90;;;;;;4954429;29;20070;-93
2022/11/03 10:19:05;;;;;;;4.85;0.80;;;13.90;99.90;;;;;;4954372;29;20127;-93
2022/11/03 10:22:15;;;;;;;;;;;;;;;;;;;;;
2022/11/03 10:25:32;;;;;;;3.85;0.82;;;14.00;99.90;;;;;;4954452;29;20047;-93
2022/11/03 10:28:39;;;;;;;5.00;1.05;;;14.20;99.90;;;;;;4954205;29;20051;-94
2022/11/03 10:32:04;;;;;;;6.65;0.90;;;14.20;99.90;;;;;;4954000;29;20063;-93
2022/11/03 10:34:59;;;;;;;10.45;1.05;;;14.30;99.90;;;;;;4952883;28;20057;-92
2022/11/03 10:37:54;;;;;;;9.10;0.98;;;14.30;99.90;;;;;;4954891;29;20043;-94
2022/11/03 10:40:51;;;;;;;7.32;0.80;;;14.30;99.90;;;;;;4955085;28;20130;-87
2022/11/03 10:44:06;;;;;;;3.47;0.70;;;14.30;99.90;;;;;;4940014;29;20143;-86
2022/11/03 10:47:24;;;;;;;5.07;0.70;;;14.40;99.90;;;;;;4948206;29;20047;-91
2022/11/03 10:50:38;;;;;;;2.35;0.60;;;14.40;99.90;;;;;;4944898;29;20047;-93
2022/11/03 10:53:41;;;;;;;4.03;0.70;;;14.40;99.90;;;;;;4913637;29;20165;-92
2022/11/03 10:56:37;;;;;;;3.58;0.90;;;14.40;99.90;;;;;;4918736;29;20043;-95
2022/11/03 10:59:36;;;;;;;5.13;0.80;;;14.50;99.90;;;;;;4932503;29;20541;-95
2022/11/03 11:02:39;;;;;;;;;;;;;;;;;;;;;
2022/11/03 11:05:20;;;;;;;4.05;1.00;;;14.60;99.90;;;;;;4917790;29;20058;-93
2022/11/03 11:08:17;;;;;;;3.25;0.60;;;14.70;99.90;;;;;;4919575;29;20149;-95
2022/11/03 11:11:18;;;;;;;7.32;1.13;;;14.80;99.90;;;;;;4923215;29;20595;-86
2022/11/03 11:14:35;;;;;;;4.93;0.73;;;14.90;99.90;;;;;;4936073;28;20083;-89
2022/11/03 11:18:01;;;;;;;3.92;0.75;;;14.90;99.90;;;;;;4979627;28;20055;-86
2022/11/03 11:20:48;;;;;;;4.22;0.70;;;15.00;99.90;;;;;;4928224;29;20520;-87
2022/11/03 11:23:40;;;;;;;3.03;0.60;;;15.10;99.90;;;;;;4938912;29;20472;-90
2022/11/03 11:26:51;;;;;;;2.85;0.70;;;15.10;99.90;;;;;;4941121;29;20050;-92
2022/11/03 11:29:50;;;;;;;4.70;0.80;;;15.20;99.90;;;;;;4925327;29;20055;-93
2022/11/03 11:33:11;;;;;;;;;;;;;;;;;;;;;
2022/11/03 11:36:10;;;;;;;3.95;0.75;;;15.50;99.90;;;;;;4939715;29;20043;-89
2022/11/03 11:39:13;;;;;;;5.65;0.93;;;15.70;99.90;;;;;;4932423;29;20048;-90
2022/11/03 11:42:19;;;;;;;5.65;0.77;;;15.80;99.90;;;;;;4938938;29;20047;-94
2022/11/03 11:45:24;;;;;;;;;;;;;;;;;;;;;
2022/11/03 11:48:40;;;;;;;;;;;;;;;;;;;;;
2022/11/03 11:51:48;;;;;;;7.57;0.90;;;15.90;99.90;;;;;;4938101;29;20151;-90
2022/11/03 11:54:42;;;;;;;5.32;1.25;;;15.80;99.90;;;;;;4907945;28;20468;-91
2022/11/03 11:57:38;;;;;;;1.58;0.60;;;15.80;99.90;;;;;;4995961;28;20054;-91
2022/11/03 12:00:50;;;;;;;1.60;0.50;;;15.70;99.90;;;;;;5005831;28;20138;-89
2022/11/03 12:04:10;;;;;;;3.05;0.57;;;15.70;99.90;;;;;;5011897;28;20498;-92
2022/11/03 12:07:46;;;;;;;2.80;0.70;;;15.70;99.90;;;;;;4959765;29;20103;-85
2022/11/03 12:10:44;;;;;;;;;;;;;;;;;;;;;
2022/11/03 12:17:26;;;;;;;2.53;0.50;;;15.70;99.90;;;;;;4943435;29;20051;-88
2022/11/03 12:21:00;;;;;;;2.60;0.43;;;15.70;99.90;;;;;;4938001;29;20539;-91
2022/11/03 12:23:59;;;;;;;2.55;0.40;;;15.60;99.90;;;;;;4911288;29;20582;-92
2022/11/03 12:27:00;;;;;;;1.73;0.43;;;15.60;99.90;;;;;;4896398;29;20087;-87
2022/11/03 12:30:17;;;;;;;;;;;;;;;;;;;;;
2022/11/03 12:33:00;;;;;;;1.95;0.50;;;15.80;99.90;;;;;;4904554;29;20063;-87
2022/11/03 12:35:57;;;;;;;2.47;0.50;;;15.50;99.90;;;;;;4892030;29;20048;-90
2022/11/03 12:39:00;;;;;;;2.42;0.52;;;15.30;99.90;;;;;;4890412;29;20052;-89
2022/11/03 12:41:57;;;;;;;3.25;0.47;;;15.50;99.90;;;;;;4908805;29;20049;-94
2022/11/03 12:49:15;;;;;;;3.33;0.85;;;15.40;99.90;;;;;;4936835;29;20135;-92
2022/11/03 12:51:44;;;;;;;1.92;0.50;;;15.30;99.90;;;;;;4905989;29;20055;-94
2022/11/03 12:54:12;;;;;;;1.05;0.43;;;15.30;99.90;;;;;;4901603;29;20040;-84
2022/11/03 12:56:39;;;;;;;4.93;0.32;;;15.20;99.90;;;;;;4910482;29;20126;-93
2022/11/03 12:59:12;;;;;;;1.80;0.40;;;15.20;99.90;;;;;;4942892;28;20078;-92
2022/11/03 13:01:38;;;;;;;3.63;0.70;;;15.20;99.90;;;;;;4982544;28;20082;-86
2022/11/03 13:04:07;;;;;;;2.75;0.50;;;15.20;99.90;;;;;;4978901;28;20066;-86
2022/11/03 13:06:33;;;;;;;3.67;0.60;;;15.20;99.90;;;;;;4975997;28;20117;-86
2022/11/03 13:08:59;;;;;;;1.92;0.50;;;15.10;99.90;;;;;;4978320;28;20034;-89
2022/11/03 13:14:09;;;;;;;1.65;0.63;;;15.10;99.90;;;;;;4976892;28;20050;-94
2022/11/03 13:16:35;;;;;;;2.80;0.45;;;15.10;99.90;;;;;;4995310;28;20034;-92
2022/11/03 13:19:01;;;;;;;1.67;0.40;;;15.10;99.90;;;;;;4979332;28;20066;-95
2022/11/03 13:21:27;;;;;;;2.17;0.60;;;15.10;99.90;;;;;;4981957;28;20404;-91
2022/11/03 13:23:55;;;;;;;1.83;0.60;;;15.20;99.90;;;;;;4983291;28;20113;-86
2022/11/03 13:26:26;;;;;;;2.25;0.50;;;15.20;99.90;;;;;;4984239;28;20448;-91
2022/11/03 13:29:01;;;;;;;4.57;0.60;;;15.20;99.90;;;;;;4983574;28;20042;-89
2022/11/03 13:31:33;;;;;;;5.00;0.55;;;15.20;99.90;;;;;;4969221;28;20122;-90
2022/11/03 13:34:30;;;;;;;2.05;0.60;;;15.20;99.90;;;;;;4975709;28;20038;-94
2022/11/03 13:37:29;;;;;;;2.80;0.93;;;15.20;99.90;;;;;;4986138;28;20089;-92
2022/11/03 13:40:37;;;;;;;2.22;0.55;;;15.20;99.90;;;;;;5035002;22;20057;-93
2022/11/03 13:43:28;;;;;;;2.08;0.50;;;15.10;99.90;;;;;;5044603;28;20049;-91
2022/11/03 13:50:30;;;;;;;;;;;;;;;;;;;;;
2022/11/03 13:53:44;;;;;;;3.50;0.60;;;15.00;99.90;;;;;;5034666;28;20045;-91
2022/11/03 13:57:05;;;;;;;4.32;0.50;;;15.00;99.90;;;;;;5048189;28;20880;-86
2022/11/03 14:00:03;;;;;;;1.38;0.50;;;14.90;99.90;;;;;;5009186;28;20073;-85
2022/11/03 14:03:10;;;;;;;2.90;0.47;;;14.80;99.90;;;;;;5021097;28;20050;-87
2022/11/03 14:06:06;;;;;;;1.48;0.40;;;14.90;99.90;;;;;;5005256;28;20061;-89
2022/11/03 14:09:06;;;;;;;2.08;0.30;;;14.70;99.90;;;;;;4978705;28;20118;-88
2022/11/03 14:15:36;;;;;;;1.98;0.40;;;14.70;99.90;;;;;;4996974;28;20050;-85
2022/11/03 14:18:29;;;;;;;1.85;0.40;;;14.60;99.90;;;;;;4984441;28;20046;-86
2022/11/03 14:21:27;;;;;;;1.95;0.40;;;14.60;99.90;;;;;;4971406;28;20066;-85
2022/11/03 14:24:32;;;;;;;3.50;0.47;;;14.50;99.90;;;;;;4992396;28;20081;-88
2022/11/03 14:27:34;;;;;;;;;;;;;;;;;;;;;
2022/11/03 14:30:23;;;;;;;1.60;0.40;;;14.50;99.90;;;;;;4991262;28;20058;-94
2022/11/03 14:33:28;;;;;;;;;;;;;;;;;;;;;
2022/11/03 14:36:31;;;;;;;1.17;0.40;;;14.50;99.90;;;;;;4987342;28;20190;-86
2022/11/03 14:39:06;;;;;;;1.52;0.40;;;14.40;99.90;;;;;;4973481;28;20478;-90
2022/11/03 14:45:01;;;;;;;2.90;0.40;;;14.40;99.90;;;;;;5040705;28;20092;-89
2022/11/03 14:47:54;;;;;;;3.95;0.60;;;14.30;99.90;;;;;;5033831;28;20053;-88
2022/11/03 14:50:21;;;;;;;1.10;0.40;;;14.30;99.90;;;;;;5034207;28;20087;-88
2022/11/03 14:52:48;;;;;;;3.10;0.40;;;14.20;99.90;;;;;;5008238;28;20045;-90
2022/11/03 14:55:18;;;;;;;0.68;0.30;;;14.20;99.90;;;;;;5040064;28;20052;-88
2022/11/03 14:57:45;;;;;;;1.75;0.30;;;14.10;99.90;;;;;;5041221;28;20038;-91
2022/11/03 15:00:16;;;;;;;1.20;0.35;;;14.00;99.90;;;;;;5039770;28;20049;-92
2022/11/03 15:02:48;;;;;;;0.80;0.43;;;14.00;99.90;;;;;;5041968;28;20076;-89
2022/11/03 15:05:42;;;;;;;2.50;0.40;;;14.00;99.90;;;;;;5041368;28;20049;-92
2022/11/03 15:08:08;;;;;;;2.00;0.50;;;13.90;99.90;;;;;;5043919;28;20529;-89
2022/11/03 15:10:34;;;;;;;2.22;0.35;;;13.90;99.90;;;;;;5028822;28;20065;-92
2022/11/03 15:13:06;;;;;;;2.20;0.30;;;13.90;99.90;;;;;;5030765;28;20135;-86
2022/11/03 15:15:40;;;;;;;0.60;0.20;;;13.40;99.90;;;;;;5027383;28;20072;-91
2022/11/03 15:18:16;;;;;;;0.98;0.40;;;13.90;99.90;;;;;;5020690;28;20100;-95
2022/11/03 15:20:49;;;;;;;1.55;0.30;;;14.00;99.90;;;;;;5040273;28;20033;-85
2022/11/03 15:23:28;;;;;;;0.90;0.40;;;14.00;99.90;;;;;;5042668;28;20125;-96
2022/11/03 15:25:55;;;;;;;3.78;0.50;;;13.90;99.90;;;;;;5039212;28;20128;-94
2022/11/03 15:28:21;;;;;;;3.65;0.50;;;13.90;99.90;;;;;;5030695;28;20088;-85
2022/11/03 15:30:48;;;;;;;1.73;0.63;;;13.90;99.90;;;;;;5042710;28;20171;-84
2022/11/03 15:33:15;;;;;;;2.03;0.57;;;13.80;99.90;;;;;;5028826;28;20141;-84
2022/11/03 15:35:41;;;;;;;2.55;0.73;;;13.80;99.90;;;;;;5044374;28;20112;-86
2022/11/03 15:38:09;;;;;;;1.08;0.30;;;13.70;99.90;;;;;;5044599;28;20048;-86
2022/11/03 15:40:37;;;;;;;1.55;0.30;;;13.70;99.90;;;;;;5043515;28;20041;-87
2022/11/03 15:43:07;;;;;;;3.40;0.60;;;13.70;99.90;;;;;;5043650;28;20049;-87
2022/11/03 15:45:35;;;;;;;2.92;0.60;;;13.60;99.90;;;;;;5041712;28;20378;-90
2022/11/03 15:48:06;;;;;;;3.63;0.45;;;13.60;99.90;;;;;;5037236;28;20056;-87
2022/11/03 15:50:35;;;;;;;1.10;0.30;;;13.50;99.90;;;;;;5042944;28;20045;-86
2022/11/03 15:53:06;;;;;;;0.93;0.40;;;13.50;99.90;;;;;;5044042;28;20053;-86
2022/11/03 15:55:38;;;;;;;2.00;0.40;;;13.50;99.90;;;;;;5040301;28;20045;-84
2022/11/03 15:58:06;;;;;;;4.32;0.70;;;13.40;99.90;;;;;;5012848;28;20046;-84
2022/11/03 16:00:40;;;;;;;2.30;0.40;;;13.40;99.90;;;;;;5042587;28;20107;-83
2022/11/03 16:03:22;;;;;;;3.40;0.40;;;13.40;99.90;;;;;;5044903;28;20044;-87
2022/11/03 16:06:04;;;;;;;0.98;0.40;;;13.30;99.90;;;;;;5042460;28;20045;-90
2022/11/03 16:08:33;;;;;;;1.35;0.45;;;13.30;99.90;;;;;;5027713;28;20116;-85
2022/11/03 16:11:26;;;;;;;;;;;;;;;;;;;;;
2022/11/03 16:14:04;;;;;;;1.65;0.32;;;13.20;99.90;;;;;;5022053;28;20053;-90
2022/11/03 16:16:35;;;;;;;1.10;0.90;;;13.20;99.90;;;;;;5049139;28;20045;-92
2022/11/03 16:19:04;;;;;;;0.90;0.40;;;13.20;99.90;;;;;;5039683;28;20038;-90
2022/11/03 16:21:36;;;;;;;1.60;0.52;;;13.20;99.90;;;;;;5035289;28;20439;-89
2022/11/03 16:24:08;;;;;;;1.58;0.50;;;13.20;99.90;;;;;;5017464;28;20052;-90
2022/11/03 16:26:40;;;;;;;2.53;0.40;;;13.10;99.90;;;;;;5044181;28;20127;-88
2022/11/03 16:29:12;;;;;;;3.75;0.30;;;13.10;99.90;;;;;;5043297;28;20470;-86
2022/11/03 16:31:47;;;;;;;0.73;0.43;;;13.10;99.90;;;;;;5025484;28;20084;-86
2022/11/03 16:34:23;;;;;;;1.90;0.40;;;13.00;99.90;;;;;;5040759;28;20041;-85
2022/11/03 16:36:50;;;;;;;1.23;0.32;;;13.00;99.90;;;;;;5043748;28;20482;-86
2022/11/03 16:39:20;;;;;;;2.55;0.40;;;12.90;99.90;;;;;;5024511;28;20092;-85
2022/11/03 16:41:53;;;;;;;2.28;0.88;;;12.90;99.90;;;;;;5040940;28;20072;-89
2022/11/03 16:44:26;;;;;;;1.38;0.30;;;13.00;99.90;;;;;;5036411;28;20121;-89
2022/11/03 16:46:56;;;;;;;1.55;0.40;;;12.90;99.90;;;;;;5043756;28;20037;-90
2022/11/03 16:49:26;;;;;;;1.05;0.38;;;12.90;99.90;;;;;;5046070;28;20041;-92
2022/11/03 16:52:01;;;;;;;1.52;0.50;;;12.90;99.90;;;;;;5024217;28;20046;-92
2022/11/03 16:55:19;;;;;;;;;;;;;;;;;;;;;
2022/11/03 16:58:34;;;;;;;1.10;0.40;;;12.30;99.90;;;;;;4991041;28;20192;-85
2022/11/03 17:01:50;;;;;;;;;;;;;;;;;;;;;
2022/11/03 17:05:10;;;;;;;;;;;;;;;;;;;;;
2022/11/03 17:08:30;;;;;;;;;;;;;;;;;;;;;
2022/11/03 17:11:54;;;;;;;0.88;0.40;;;12.80;99.90;;;;;;5042274;28;20049;-84
2022/11/03 17:15:22;;;;;;;;;;;;;;;;;;;;;
2022/11/03 17:18:07;;;;;;;0.77;0.38;;;12.80;99.90;;;;;;5031549;28;20125;-87
2022/11/03 17:21:15;;;;;;;;;;;;;;;;;;;;;
2022/11/03 17:24:26;;;;;;;;;;;;;;;;;;;;;
2022/11/03 17:27:45;;;;;;;3.92;0.52;;;12.70;99.90;;;;;;5043010;28;20051;-85
2022/11/03 17:31:00;;;;;;;1.63;0.50;;;12.70;99.90;;;;;;5042255;28;20448;-89
2022/11/03 17:34:09;;;;;;;1.30;0.47;;;12.70;99.90;;;;;;5038304;28;20053;-84
2022/11/03 17:37:06;;;;;;;2.47;0.50;;;12.80;99.90;;;;;;5041845;28;20562;-85
2022/11/03 17:40:13;;;;;;;2.28;0.85;;;12.80;99.90;;;;;;5035286;28;20430;-85
2022/11/03 17:43:15;;;;;;;3.10;0.60;;;12.80;99.90;;;;;;5029787;28;20046;-85
2022/11/03 17:45:53;;;;;;;;;;;;;;;;;;;;;
2022/11/03 17:48:46;;;;;;;1.77;0.50;;;12.80;99.90;;;;;;5026399;28;20401;-86
2022/11/03 17:52:06;;;;;;;5.18;0.75;;;12.80;99.90;;;;;;5023360;28;20045;-85
2022/11/03 17:55:14;;;;;;;0.70;0.40;;;12.70;99.90;;;;;;5009303;28;20072;-85
2022/11/03 17:58:55;;;;;;;1.88;0.50;;;12.60;99.90;;;;;;5020861;28;20498;-86
2022/11/03 18:02:19;;;;;;;2.83;0.82;;;12.60;99.90;;;;;;5006307;28;20578;-85
2022/11/03 18:05:36;;;;;;;1.65;0.55;;;12.50;99.90;;;;;;5020541;28;20050;-86
2022/11/03 18:08:58;;;;;;;2.55;0.55;;;12.40;99.90;;;;;;4986861;28;20084;-86
2022/11/03 18:15:38;;;;;;;;;;;;;;;;;;;;;
2022/11/03 18:18:59;;;;;;;2.30;0.80;;;12.30;99.90;;;;;;5022505;28;20056;-86
2022/11/03 18:22:23;;;;;;;;;;;;;;;;;;;;;
2022/11/03 18:25:23;;;;;;;1.73;0.80;;;12.20;99.90;;;;;;5003962;28;20490;-88
2022/11/03 18:28:07;;;;;;;;;;;;;;;;;;;;;
2022/11/03 18:31:16;;;;;;;;;;;12.10;99.90;;;;;;5019106;28;20141;-88
2022/11/03 18:34:35;;;;;;;1.97;0.47;;;12.10;99.90;;;;;;5022987;28;19921;-88
2022/11/03 18:37:33;;;;;;;0.88;0.45;;;12.00;99.90;;;;;;4999894;28;20505;-88
2022/11/03 18:40:28;;;;;;;1.73;0.50;;;12.00;99.90;;;;;;5005818;28;20501;-87
2022/11/03 18:43:58;;;;;;;1.52;0.45;;;12.00;99.90;;;;;;5017461;28;20056;-87